createdAt,value
2022-09-16T00:02:40.069Z,10.74
2022-09-16T00:05:51.436Z,10.77
2022-09-16T00:09:02.293Z,10.79
2022-09-16T00:12:11.269Z,10.75
2022-09-16T00:15:20.746Z,10.74
2022-09-16T00:18:29.951Z,10.73
2022-09-16T00:21:39.463Z,10.75
2022-09-16T00:24:51.460Z,10.74
2022-09-16T00:28:00.438Z,10.70
2022-09-16T00:31:09.440Z,10.66
2022-09-16T00:34:18.480Z,10.64
2022-09-16T00:37:27.476Z,10.59
2022-09-16T00:40:45.670Z,10.64
2022-09-16T00:43:57.705Z,10.67
2022-09-16T00:47:06.972Z,10.63
2022-09-16T00:50:18.909Z,10.65
2022-09-16T00:53:30.295Z,10.64
2022-09-16T00:56:43.153Z,10.67
2022-09-16T00:59:54.862Z,10.76
2022-09-16T01:03:03.797Z,10.84
2022-09-16T01:06:14.142Z,10.86
2022-09-16T01:09:25.787Z,10.88
2022-09-16T01:12:36.398Z,10.92
2022-09-16T01:15:46.299Z,11.00
2022-09-16T01:19:01.016Z,11.04
2022-09-16T01:22:21.068Z,11.02
2022-09-16T01:25:38.605Z,11.01
2022-09-16T01:29:24.021Z,10.90
2022-09-16T01:32:41.114Z,10.80
2022-09-16T01:36:02.168Z,10.69
2022-09-16T01:39:20.099Z,10.64
2022-09-16T01:42:36.120Z,10.72
2022-09-16T01:45:50.288Z,10.73
2022-09-16T01:49:02.785Z,10.72
2022-09-16T01:52:18.936Z,10.78
2022-09-16T01:55:32.932Z,10.80
2022-09-16T01:58:44.886Z,10.86
2022-09-16T02:01:57.739Z,10.92
2022-09-16T02:05:13.180Z,11.00
2022-09-16T02:08:25.292Z,11.02
2022-09-16T02:11:35.550Z,11.01
2022-09-16T02:14:46.156Z,11.05
2022-09-16T02:17:59.146Z,11.04
2022-09-16T02:21:14.682Z,11.02
2022-09-16T02:24:24.580Z,11.02
2022-09-16T02:27:36.673Z,10.98
2022-09-16T02:30:49.451Z,10.90
2022-09-16T02:34:01.917Z,10.79
2022-09-16T02:37:16.584Z,10.71
2022-09-16T02:40:27.800Z,10.70
2022-09-16T02:43:36.832Z,10.70
2022-09-16T02:46:52.708Z,10.71
2022-09-16T02:50:03.528Z,10.70
2022-09-16T02:53:21.374Z,10.72
2022-09-16T02:56:32.677Z,10.74
2022-09-16T02:59:42.051Z,10.77
2022-09-16T03:02:51.194Z,10.85
2022-09-16T03:06:19.658Z,10.82
2022-09-16T03:09:30.220Z,10.81
2022-09-16T03:12:49.747Z,10.84
2022-09-16T03:16:04.002Z,10.83
2022-09-16T03:19:17.665Z,10.88
2022-09-16T03:22:34.205Z,10.86
2022-09-16T03:25:50.818Z,10.77
2022-09-16T03:29:06.270Z,10.65
2022-09-16T03:32:21.165Z,10.50
2022-09-16T03:35:33.066Z,10.43
2022-09-16T03:38:42.601Z,10.36
2022-09-16T03:41:52.995Z,10.31
2022-09-16T03:45:02.016Z,10.22
2022-09-16T03:48:11.509Z,10.12
2022-09-16T03:51:20.545Z,10.07
2022-09-16T03:54:29.726Z,10.05
2022-09-16T03:57:40.231Z,10.02
2022-09-16T04:00:51.880Z,10.04
2022-09-16T04:04:00.924Z,10.10
2022-09-16T04:07:09.818Z,10.15
2022-09-16T04:10:19.084Z,10.21
2022-09-16T04:13:30.539Z,10.22
2022-09-16T04:16:43.007Z,10.19
2022-09-16T04:19:54.240Z,10.14
2022-09-16T04:23:03.212Z,10.10
2022-09-16T04:26:12.440Z,10.07
2022-09-16T04:29:22.823Z,10.09
2022-09-16T04:32:31.806Z,10.14
2022-09-16T04:35:40.816Z,10.18
2022-09-16T04:38:50.793Z,10.15
2022-09-16T04:42:01.226Z,10.11
2022-09-16T04:45:12.194Z,10.06
2022-09-16T04:48:21.240Z,10.07
2022-09-16T04:51:32.331Z,10.10
2022-09-16T04:54:41.272Z,10.20
2022-09-16T04:57:50.534Z,10.26
2022-09-16T05:01:07.179Z,10.30
2022-09-16T05:04:16.317Z,10.24
2022-09-16T05:07:25.813Z,10.19
2022-09-16T05:10:35.632Z,10.26
2022-09-16T05:13:44.800Z,10.27
2022-09-16T05:16:55.223Z,10.31
2022-09-16T05:20:04.749Z,10.33
2022-09-16T05:23:13.907Z,10.36
2022-09-16T05:26:25.053Z,10.50
2022-09-16T05:29:33.919Z,10.62
2022-09-16T05:32:44.183Z,10.73
2022-09-16T05:35:53.116Z,10.78
2022-09-16T05:42:32.545Z,11.00
2022-09-16T05:45:41.541Z,11.12
2022-09-16T05:48:52.357Z,11.22
2022-09-16T05:52:01.386Z,11.20
2022-09-16T05:55:10.651Z,11.31
2022-09-16T05:58:19.681Z,11.57
2022-09-16T06:01:31.318Z,11.57
2022-09-16T06:04:42.634Z,11.42
2022-09-16T06:07:57.800Z,11.49
2022-09-16T06:11:09.285Z,11.54
2022-09-16T06:14:19.032Z,11.45
2022-09-16T06:17:28.022Z,11.23
2022-09-16T06:20:39.411Z,11.24
2022-09-16T06:23:48.363Z,11.56
2022-09-16T06:26:57.359Z,11.75
2022-09-16T06:30:07.103Z,11.65
2022-09-16T06:33:17.080Z,11.76
2022-09-16T06:36:28.942Z,11.77
2022-09-16T06:39:37.873Z,11.75
2022-09-16T06:42:46.862Z,12.15
2022-09-16T06:45:59.603Z,12.53
2022-09-16T06:49:11.121Z,12.71
2022-09-16T06:52:21.676Z,12.65
2022-09-16T06:55:32.866Z,13.55
2022-09-16T06:58:44.068Z,14.41
2022-09-16T07:01:53.196Z,15.39
2022-09-16T07:05:02.780Z,15.83
2022-09-16T07:08:13.097Z,16.80
2022-09-16T07:11:23.124Z,16.53
2022-09-16T07:14:32.709Z,16.43
2022-09-16T07:17:41.577Z,17.09
2022-09-16T07:20:50.441Z,17.93
2022-09-16T07:24:02.648Z,18.36
2022-09-16T07:27:11.578Z,17.33
2022-09-16T07:30:20.563Z,17.38
2022-09-16T07:33:29.694Z,18.55
2022-09-16T07:36:40.121Z,20.11
2022-09-16T07:39:50.624Z,19.92
2022-09-16T07:42:59.603Z,19.28
2022-09-16T07:46:10.634Z,19.51
2022-09-16T07:49:19.865Z,18.22
2022-09-16T07:52:30.524Z,17.55
2022-09-16T07:55:42.105Z,18.46
2022-09-16T07:58:51.002Z,18.48
2022-09-16T08:02:00.079Z,17.20
2022-09-16T08:05:10.098Z,17.54
2022-09-16T08:08:21.937Z,19.73
2022-09-16T08:11:32.743Z,21.58
2022-09-16T08:14:41.979Z,19.27
2022-09-16T08:17:50.991Z,17.55
2022-09-16T08:21:01.447Z,16.58
2022-09-16T08:24:11.282Z,16.70
2022-09-16T08:27:22.731Z,18.83
2022-09-16T08:30:31.945Z,20.93
2022-09-16T08:33:41.229Z,21.14
2022-09-16T08:36:50.359Z,19.44
2022-09-16T08:39:59.286Z,19.22
2022-09-16T08:43:17.055Z,20.35
2022-09-16T08:46:31.393Z,22.11
2022-09-16T08:49:45.601Z,21.80
2022-09-16T08:52:58.708Z,21.23
2022-09-16T08:56:12.465Z,20.54
2022-09-16T08:59:26.398Z,19.91
2022-09-16T09:05:57.104Z,20.41
2022-09-16T09:09:16.216Z,20.99
2022-09-16T09:12:32.467Z,22.58
2022-09-16T09:15:47.546Z,22.15
2022-09-16T09:19:05.797Z,18.83
2022-09-16T09:22:23.089Z,19.68
2022-09-16T09:25:40.769Z,18.89
2022-09-16T09:29:22.343Z,17.69
2022-09-16T09:32:49.481Z,16.71
2022-09-16T09:36:12.684Z,16.68
2022-09-16T09:39:31.885Z,17.73
2022-09-16T09:42:42.846Z,19.72
2022-09-16T09:45:57.918Z,19.08
2022-09-16T09:49:15.244Z,16.51
2022-09-16T09:52:38.694Z,18.99
2022-09-16T09:55:47.702Z,23.30
2022-09-16T09:59:02.682Z,24.55
2022-09-16T10:02:17.229Z,21.64
2022-09-16T10:05:28.855Z,23.37
2022-09-16T10:08:43.181Z,21.64
2022-09-16T10:11:55.224Z,21.90
2022-09-16T10:15:04.733Z,22.45
2022-09-16T10:18:15.406Z,21.16
2022-09-16T10:21:26.581Z,18.98
2022-09-16T10:24:37.576Z,21.97
2022-09-16T10:27:56.352Z,23.04
2022-09-16T10:31:08.507Z,25.56
2022-09-16T10:34:21.923Z,21.22
2022-09-16T10:37:32.313Z,18.63
2022-09-16T10:40:41.269Z,16.58
2022-09-16T10:43:52.767Z,15.72
2022-09-16T10:47:03.440Z,15.57
2022-09-16T10:50:17.487Z,14.87
2022-09-16T10:53:32.677Z,15.40
2022-09-16T10:56:49.458Z,16.25
2022-09-16T11:00:00.682Z,16.02
2022-09-16T11:03:30.500Z,18.59
2022-09-16T11:06:53.724Z,17.09
2022-09-16T11:10:11.244Z,17.86
2022-09-16T11:13:34.003Z,19.37
2022-09-16T11:16:54.513Z,22.77
2022-09-16T11:20:13.949Z,25.47
2022-09-16T11:23:32.147Z,23.61
2022-09-16T11:26:49.720Z,26.34
2022-09-16T11:30:10.901Z,26.20
2022-09-16T11:33:26.636Z,25.53
2022-09-16T11:36:56.209Z,26.92
2022-09-16T11:40:16.963Z,25.70
2022-09-16T11:43:42.173Z,21.69
2022-09-16T11:47:00.803Z,19.91
2022-09-16T11:50:26.871Z,18.29
2022-09-16T11:53:53.303Z,16.96
2022-09-16T11:57:05.599Z,16.02
2022-09-16T12:00:18.764Z,15.74
2022-09-16T12:03:32.527Z,15.92
2022-09-16T12:06:47.701Z,16.17
2022-09-16T12:10:01.406Z,17.38
2022-09-16T12:13:15.661Z,17.86
2022-09-16T12:16:33.123Z,18.14
2022-09-16T12:19:47.940Z,17.32
2022-09-16T12:23:02.399Z,16.37
2022-09-16T12:26:14.852Z,15.67
2022-09-16T12:29:29.558Z,17.97
2022-09-16T12:32:50.844Z,21.70
2022-09-16T12:36:03.413Z,23.56
2022-09-16T12:39:12.884Z,24.25
2022-09-16T12:42:57.397Z,24.51
2022-09-16T12:46:37.409Z,24.35
2022-09-16T12:50:07.791Z,22.79
2022-09-16T12:53:33.146Z,22.31
2022-09-16T12:56:54.107Z,23.01
2022-09-16T13:00:16.002Z,24.07
2022-09-16T13:03:28.091Z,23.21
2022-09-16T13:06:40.944Z,21.89
2022-09-16T13:09:49.920Z,20.64
2022-09-16T13:13:01.620Z,20.78
2022-09-16T13:16:11.261Z,20.94
2022-09-16T13:19:47.054Z,20.29
2022-09-16T13:23:06.376Z,21.06
2022-09-16T13:26:15.763Z,21.58
2022-09-16T13:29:40.095Z,19.79
2022-09-16T13:33:00.454Z,19.19
2022-09-16T13:36:19.036Z,18.60
2022-09-16T13:39:34.011Z,17.82
2022-09-16T13:42:42.955Z,16.47
2022-09-16T13:46:02.789Z,16.20
2022-09-16T13:49:18.452Z,16.28
2022-09-16T13:52:29.571Z,16.85
2022-09-16T13:55:41.601Z,17.68
2022-09-16T13:58:57.608Z,18.20
2022-09-16T14:02:15.919Z,19.54
2022-09-16T14:05:47.476Z,19.34
2022-09-16T14:09:00.449Z,18.99
2022-09-16T14:12:17.137Z,18.99
2022-09-16T14:15:29.081Z,19.03
2022-09-16T14:18:38.238Z,19.13
2022-09-16T14:21:47.308Z,19.28
2022-09-16T14:25:06.189Z,19.54
2022-09-16T14:28:24.386Z,19.82
2022-09-16T14:31:34.581Z,18.85
2022-09-16T14:34:43.674Z,18.40
2022-09-16T14:37:56.243Z,17.98
2022-09-16T14:41:07.549Z,18.78
2022-09-16T14:44:23.855Z,19.90
2022-09-16T14:47:50.495Z,20.68
2022-09-16T14:51:02.752Z,19.49
2022-09-16T14:54:18.702Z,17.50
2022-09-16T14:57:30.261Z,16.98
2022-09-16T15:00:44.359Z,16.30
2022-09-16T15:03:55.331Z,16.07
2022-09-16T15:07:12.499Z,15.73
2022-09-16T15:10:23.959Z,15.51
2022-09-16T15:13:39.231Z,16.28
2022-09-16T15:16:51.079Z,17.90
2022-09-16T15:20:01.084Z,19.84
2022-09-16T15:23:22.224Z,20.51
2022-09-16T15:26:33.042Z,20.49
2022-09-16T15:29:50.553Z,21.14
2022-09-16T15:33:00.866Z,21.47
2022-09-16T15:36:17.783Z,22.28
2022-09-16T15:39:29.063Z,20.84
2022-09-16T15:42:38.780Z,21.80
2022-09-16T15:45:59.342Z,22.34
2022-09-16T15:49:14.664Z,21.90
2022-09-16T15:52:23.688Z,20.17
2022-09-16T15:55:36.560Z,17.61
2022-09-16T15:58:47.946Z,16.37
2022-09-16T16:01:58.493Z,15.70
2022-09-16T16:05:12.342Z,15.24
2022-09-16T16:08:40.168Z,14.99
2022-09-16T16:11:49.170Z,14.71
2022-09-16T16:14:58.716Z,14.55
2022-09-16T16:18:09.639Z,14.53
2022-09-16T16:21:21.369Z,14.38
2022-09-16T16:24:31.462Z,14.20
2022-09-16T16:27:40.582Z,14.06
2022-09-16T16:30:49.788Z,13.92
2022-09-16T16:34:00.402Z,13.79
2022-09-16T16:37:19.354Z,13.65
2022-09-16T16:40:37.331Z,13.53
2022-09-16T16:43:46.585Z,13.44
2022-09-16T16:46:56.597Z,13.31
2022-09-16T16:50:06.317Z,13.21
2022-09-16T16:53:16.639Z,13.13
2022-09-16T16:56:25.617Z,12.99
2022-09-16T16:59:34.818Z,12.89
2022-09-16T17:02:44.789Z,12.79
2022-09-16T17:05:53.771Z,12.68
2022-09-16T17:09:04.525Z,12.58
2022-09-16T17:12:13.990Z,12.49
2022-09-16T17:15:22.881Z,12.41
2022-09-16T17:18:31.856Z,12.33
2022-09-16T17:21:41.251Z,12.25
2022-09-16T17:24:51.609Z,12.19
2022-09-16T17:28:00.542Z,12.11
2022-09-16T17:31:12.963Z,12.01
2022-09-16T17:34:22.062Z,11.94
2022-09-16T17:37:31.200Z,11.87
2022-09-16T17:40:41.718Z,11.81
2022-09-16T17:43:50.735Z,11.74
2022-09-16T17:46:59.714Z,11.64
2022-09-16T17:50:10.013Z,11.56
2022-09-16T17:53:19.262Z,11.46
2022-09-16T17:56:29.766Z,11.42
2022-09-16T17:59:38.645Z,11.34
2022-09-16T18:02:47.728Z,11.24
2022-09-16T18:06:05.025Z,11.22
2022-09-16T18:09:16.306Z,11.15
2022-09-16T18:12:26.700Z,11.09
2022-09-16T18:15:35.715Z,11.02
2022-09-16T18:18:45.746Z,10.97
2022-09-16T18:21:54.977Z,10.92
2022-09-16T18:25:04.777Z,10.85
2022-09-16T18:28:15.102Z,10.83
2022-09-16T18:31:25.086Z,10.81
2022-09-16T18:34:35.214Z,10.80
2022-09-16T18:37:44.133Z,10.77
2022-09-16T18:40:53.467Z,10.72
2022-09-16T18:44:07.552Z,10.72
2022-09-16T18:47:16.645Z,10.70
2022-09-16T18:50:26.774Z,10.64
2022-09-16T18:53:35.643Z,10.58
2022-09-16T18:56:44.559Z,10.52
2022-09-16T18:59:55.065Z,10.50
2022-09-16T19:03:03.896Z,10.48
2022-09-16T19:06:12.826Z,10.42
2022-09-16T19:09:23.512Z,10.40
2022-09-16T19:12:35.944Z,10.41
2022-09-16T19:15:48.853Z,10.38
2022-09-16T19:18:58.214Z,10.34
2022-09-16T19:22:07.108Z,10.26
2022-09-16T19:25:16.151Z,10.20
2022-09-16T19:28:25.184Z,10.15
2022-09-16T19:31:36.566Z,10.09
2022-09-16T19:34:45.501Z,10.03
2022-09-16T19:37:54.911Z,9.98
2022-09-16T19:41:04.877Z,9.92
2022-09-16T19:44:15.732Z,9.89
2022-09-16T19:47:26.112Z,9.88
2022-09-16T19:50:35.154Z,9.87
2022-09-16T19:53:45.440Z,9.81
2022-09-16T19:56:54.578Z,9.78
2022-09-16T20:00:05.699Z,9.79
2022-09-16T20:03:22.044Z,9.83
2022-09-16T20:06:32.674Z,9.73
2022-09-16T20:09:41.684Z,9.68
2022-09-16T20:12:57.322Z,9.67
2022-09-16T20:16:10.034Z,9.66
2022-09-16T20:19:21.145Z,9.62
2022-09-16T20:22:30.094Z,9.58
2022-09-16T20:25:38.989Z,9.50
2022-09-16T20:28:50.186Z,9.52
2022-09-16T20:31:59.300Z,9.51
2022-09-16T20:35:10.476Z,9.50
2022-09-16T20:38:19.482Z,9.44
2022-09-16T20:41:30.184Z,9.43
2022-09-16T20:44:39.206Z,9.39
2022-09-16T20:47:52.167Z,9.42
2022-09-16T20:51:06.405Z,9.43
2022-09-16T20:54:16.808Z,9.41
2022-09-16T20:57:25.753Z,9.35
2022-09-16T21:00:34.980Z,9.28
2022-09-16T21:03:44.978Z,9.23
2022-09-16T21:06:55.390Z,9.17
2022-09-16T21:10:05.258Z,9.09
2022-09-16T21:13:14.685Z,9.01
2022-09-16T21:16:24.847Z,8.94
2022-09-16T21:19:33.783Z,8.90
2022-09-16T21:22:44.802Z,8.90
2022-09-16T21:25:54.139Z,8.85
2022-09-16T21:29:06.540Z,8.78
2022-09-16T21:32:15.518Z,8.71
2022-09-16T21:35:24.544Z,8.69
2022-09-16T21:38:35.177Z,8.63
2022-09-16T21:41:44.441Z,8.60
2022-09-16T21:44:58.027Z,8.59
2022-09-16T21:48:06.967Z,8.50
2022-09-16T21:51:17.649Z,8.44
2022-09-16T21:54:28.109Z,8.42
2022-09-16T21:57:37.011Z,8.38
2022-09-16T22:00:46.032Z,8.32
2022-09-16T22:03:56.711Z,8.27
2022-09-16T22:07:10.765Z,8.23
2022-09-16T22:10:21.521Z,8.23
2022-09-16T22:13:31.593Z,8.19
2022-09-16T22:16:41.723Z,8.19
2022-09-16T22:19:50.760Z,8.18
2022-09-16T22:22:59.720Z,8.20
2022-09-16T22:26:11.721Z,8.18
2022-09-16T22:29:20.720Z,8.19
2022-09-16T22:32:29.675Z,8.22
2022-09-16T22:35:38.644Z,8.17
2022-09-16T22:38:48.450Z,8.15
2022-09-16T22:41:58.861Z,8.19
2022-09-16T22:45:08.731Z,8.22
2022-09-16T22:48:19.005Z,8.19
2022-09-16T22:51:28.984Z,8.16
2022-09-16T22:54:37.911Z,8.13
2022-09-16T22:57:48.208Z,8.13
2022-09-16T23:01:03.221Z,8.16
2022-09-16T23:04:12.166Z,8.16
2022-09-16T23:07:21.089Z,8.11
2022-09-16T23:10:30.149Z,8.15
2022-09-16T23:13:42.562Z,8.16
2022-09-16T23:16:51.541Z,8.15
2022-09-16T23:20:00.696Z,8.14
2022-09-16T23:23:09.940Z,8.12
2022-09-16T23:26:19.998Z,8.16
2022-09-16T23:29:30.421Z,8.22
2022-09-16T23:32:39.383Z,8.18
2022-09-16T23:35:48.826Z,8.14
2022-09-16T23:38:58.621Z,8.14
2022-09-16T23:42:07.825Z,8.13
2022-09-16T23:45:18.290Z,8.17
2022-09-16T23:48:27.178Z,8.26
2022-09-16T23:51:36.678Z,8.32
2022-09-16T23:54:46.380Z,8.34
2022-09-16T23:57:55.601Z,8.35
